Time;durP1;ratioP1;P1;durP2;ratioP2;P2;SDS_P1;SDS_P2;PMS_P1;PMS_P2;Temp;Humidity;BMP_temperature;BMP_pressure;BME280_temperature;BME280_humidity;BME280_pressure;Samples;Min_cycle;Max_cycle;Signal;HPM_P1;HPM_P2
2022/12/01 00:02:05;;;;;;;;;;;;;;;19.27;48.04;102161.47;5112215;28;19934;-42
2022/12/01 00:04:30;;;;;;;;;;;;;;;19.27;48.14;102167.00;5114316;28;19924;-42
2022/12/01 00:06:56;;;;;;;;;;;;;;;19.27;48.18;102167.00;5114304;28;19923;-41
2022/12/01 00:12:07;;;;;;;;;;;;;;;19.28;47.91;102162.31;5113683;28;19963;-40
2022/12/01 00:14:32;;;;;;;;;;;;;;;19.27;47.89;102155.13;5111008;28;19923;-44
2022/12/01 00:16:58;;;;;;;;;;;;;;;19.27;48.02;102157.88;5112972;28;19924;-42
2022/12/01 00:19:25;;;;;;;;;;;;;;;19.26;48.16;102157.06;5116862;28;20306;-43
2022/12/01 00:21:51;;;;;;;;;;;;;;;19.27;47.90;102149.59;5115807;28;19970;-41
2022/12/01 00:24:16;;;;;;;;;;;;;;;19.25;47.87;102158.13;5113264;28;20296;-40
2022/12/01 00:26:42;;;;;;;;;;;;;;;19.27;48.31;102155.13;5116740;28;19927;-41
2022/12/01 00:29:07;;;;;;;;;;;;;;;19.27;48.17;102157.88;5112325;28;19934;-41
2022/12/01 00:31:33;;;;;;;;;;;;;;;19.27;48.01;102155.13;5111963;28;19989;-43
2022/12/01 00:33:59;;;;;;;;;;;;;;;19.27;48.15;102157.88;5113844;28;19924;-42
2022/12/01 00:36:24;;;;;;;;;;;;;;;19.26;48.32;102162.56;5116601;28;20353;-42
2022/12/01 00:38:51;;;;;;;;;;;;;;;19.27;48.29;102155.13;5112467;28;19928;-43
2022/12/01 00:41:17;;;;;;;;;;;;;;;19.26;47.97;102150.69;5098427;28;19963;-41
2022/12/01 00:43:42;;;;;;;;;;;;;;;19.26;48.32;102157.06;5110530;28;20014;-42
2022/12/01 00:46:08;;;;;;;;;;;;;;;19.27;48.15;102155.13;5111544;28;19935;-42
2022/12/01 00:48:33;;;;;;;;;;;;;;;19.27;47.98;102157.88;5111630;28;19976;-41
2022/12/01 00:50:59;;;;;;;;;;;;;;;19.28;48.09;102159.56;5112791;28;19927;-41
2022/12/01 00:53:24;;;;;;;;;;;;;;;19.27;47.89;102152.34;5117663;28;20287;-42
2022/12/01 00:55:52;;;;;;;;;;;;;;;19.26;47.99;102153.47;5113053;28;19966;-41
2022/12/01 00:58:18;;;;;;;;;;;;;;;19.26;48.23;102153.47;5094920;28;19981;-41
2022/12/01 01:00:43;;;;;;;;;;;;;;;19.28;48.19;102159.56;5114909;28;19924;-41
2022/12/01 01:03:09;;;;;;;;;;;;;;;19.26;47.89;102159.81;5114624;28;19932;-42
2022/12/01 01:05:35;;;;;;;;;;;;;;;19.26;48.05;102162.56;5092173;28;20321;-42
2022/12/01 01:08:01;;;;;;;;;;;;;;;19.26;48.04;102161.75;5098039;27;19963;-41
2022/12/01 01:10:26;;;;;;;;;;;;;;;19.26;48.08;102157.06;5113242;28;19924;-41
2022/12/01 01:12:52;;;;;;;;;;;;;;;19.26;48.24;102165.34;5113397;28;19957;-41
2022/12/01 01:15:18;;;;;;;;;;;;;;;19.27;48.19;102167.00;5109050;28;19999;-41
2022/12/01 01:17:43;;;;;;;;;;;;;;;19.26;47.93;102173.63;5114140;28;19924;-41
2022/12/01 01:20:09;;;;;;;;;;;;;;;19.25;48.03;102160.88;5111870;28;20375;-44
2022/12/01 01:22:34;;;;;;;;;;;;;;;19.25;48.06;102169.16;5112651;28;19932;-43
2022/12/01 01:25:00;;;;;;;;;;;;;;;19.26;48.19;102178.31;5112031;28;19923;-41
2022/12/01 01:27:25;;;;;;;;;;;;;;;19.26;48.25;102181.91;5109009;28;19930;-43
2022/12/01 01:29:51;;;;;;;;;;;;;;;19.25;47.97;102166.41;5111332;28;19924;-42
2022/12/01 01:32:17;;;;;;;;;;;;;;;19.26;48.31;102179.16;5110426;28;19931;-42
2022/12/01 01:34:42;;;;;;;;;;;;;;;19.26;47.88;102173.63;5110952;28;19924;-42
2022/12/01 01:37:08;;;;;;;;;;;;;;;19.25;48.03;102177.44;5113731;28;20306;-41
2022/12/01 01:39:33;;;;;;;;;;;;;;;19.26;48.21;102179.16;5111869;28;19927;-42
2022/12/01 01:41:59;;;;;;;;;;;;;;;19.26;48.10;102187.44;5111170;28;19935;-41
2022/12/01 01:44:44;;;;;;;;;;;;;;;19.25;48.00;102184.91;5113133;28;19924;-41
2022/12/01 01:47:10;;;;;;;;;;;;;;;19.26;48.12;102183.84;5110126;28;19967;-41
2022/12/01 01:49:35;;;;;;;;;;;;;;;19.25;48.03;102193.19;5111511;28;20054;-40
2022/12/01 01:52:02;;;;;;;;;;;;;;;19.26;48.24;102186.59;5110713;28;19947;-40
2022/12/01 01:54:30;;;;;;;;;;;;;;;19.25;47.96;102193.19;5109146;28;20364;-41
2022/12/01 01:56:55;;;;;;;;;;;;;;;19.26;48.32;102192.97;5110972;28;19971;-42
2022/12/01 01:59:22;;;;;;;;;;;;;;;19.25;47.88;102191.25;5112361;28;19946;-41
2022/12/01 02:01:49;;;;;;;;;;;;;;;19.25;48.26;102190.44;5111240;28;19966;-41
2022/12/01 02:04:15;;;;;;;;;;;;;;;19.24;48.03;102192.34;5109162;28;20004;-41
2022/12/01 02:06:40;;;;;;;;;;;;;;;19.25;48.10;102191.25;5109625;28;19928;-41
2022/12/01 02:09:08;;;;;;;;;;;;;;;19.25;47.90;102185.72;5112388;28;19923;-41
2022/12/01 02:11:52;;;;;;;;;;;;;;;19.26;47.96;102190.19;5090513;28;20290;-41
2022/12/01 02:14:22;;;;;;;;;;;;;;;19.26;48.16;102192.13;5109549;28;20092;-41
2022/12/01 02:16:49;;;;;;;;;;;;;;;19.25;48.32;102194.03;5109881;28;19955;-43
2022/12/01 02:19:35;;;;;;;;;;;;;;;19.25;48.13;102188.50;5111468;28;20018;-41
2022/12/01 02:24:56;;;;;;;;;;;;;;;19.26;48.37;102189.34;5158811;27;19930;-41
2022/12/01 02:27:25;;;;;;;;;;;;;;;19.25;47.98;102188.50;5154129;27;20036;-43
2022/12/01 02:29:58;;;;;;;;;;;;;;;19.26;47.95;102192.13;5153390;27;20349;-41
2022/12/01 02:32:28;;;;;;;;;;;;;;;19.26;48.13;102181.06;5133246;27;19985;-41
2022/12/01 02:35:11;;;;;;;;;;;;;;;19.24;47.99;102181.31;5154508;27;19966;-41
2022/12/01 02:37:42;;;;;;;;;;;;;;;19.25;48.33;102182.97;5158089;27;20013;-41
2022/12/01 02:40:11;;;;;;;;;;;;;;;19.25;48.04;102187.66;5151558;27;20015;-42
2022/12/01 02:43:01;;;;;;;;;;;;;;;19.26;47.94;102189.34;5137566;27;20022;-42
2022/12/01 02:45:30;;;;;;;;;;;;;;;19.25;48.30;102177.44;5138275;27;20030;-42
2022/12/01 02:47:56;;;;;;;;;;;;;;;19.24;48.16;102175.78;5157322;27;20023;-41
2022/12/01 02:50:22;;;;;;;;;;;;;;;19.25;48.07;102185.72;5156822;27;19931;-43
2022/12/01 02:52:47;;;;;;;;;;;;;;;19.25;48.11;102185.72;5156833;27;19966;-43
2022/12/01 02:55:13;;;;;;;;;;;;;;;19.25;48.16;102182.97;5157063;27;19923;-42
2022/12/01 02:57:38;;;;;;;;;;;;;;;19.23;48.04;102176.88;5155049;27;20379;-44
2022/12/01 03:00:05;;;;;;;;;;;;;;;19.24;48.00;102178.53;5161480;27;19946;-41
2022/12/01 03:02:41;;;;;;;;;;;;;;;19.25;47.96;102182.97;5154785;27;19927;-41
2022/12/01 03:05:13;;;;;;;;;;;;;;;19.25;48.24;102179.38;5144386;27;20029;-43
2022/12/01 03:07:44;;;;;;;;;;;;;;;19.25;48.03;102187.66;5144012;27;19931;-41
2022/12/01 03:10:12;;;;;;;;;;;;;;;19.25;47.97;102184.91;5144954;27;20443;-41
2022/12/01 03:12:41;;;;;;;;;;;;;;;19.24;48.24;102189.59;5143333;27;19989;-42
2022/12/01 03:15:13;;;;;;;;;;;;;;;19.25;48.03;102187.66;5143778;27;20414;-42
2022/12/01 03:17:48;;;;;;;;;;;;;;;19.24;47.92;102181.31;5143522;27;19970;-41
2022/12/01 03:20:18;;;;;;;;;;;;;;;19.24;48.15;102181.31;5145789;27;19971;-43
2022/12/01 03:22:47;;;;;;;;;;;;;;;19.24;48.43;102174.94;5143419;27;20387;-42
2022/12/01 03:25:12;;;;;;;;;;;;;;;19.25;47.93;102184.91;5140760;27;19959;-43
2022/12/01 03:27:39;;;;;;;;;;;;;;;19.24;47.92;102181.31;5144122;27;20070;-42
2022/12/01 03:30:16;;;;;;;;;;;;;;;19.24;48.15;102178.53;5144309;27;20014;-41
2022/12/01 03:32:46;;;;;;;;;;;;;;;19.24;48.32;102181.31;5145876;27;19931;-41
2022/12/01 03:35:15;;;;;;;;;;;;;;;19.23;48.07;102176.88;5136447;27;19947;-42
2022/12/01 03:37:42;;;;;;;;;;;;;;;19.25;48.16;102176.63;5130252;28;20420;-41
2022/12/01 03:40:09;;;;;;;;;;;;;;;19.24;48.05;102188.75;5131221;28;19971;-42
2022/12/01 03:42:36;;;;;;;;;;;;;;;19.23;48.16;102182.41;5129835;28;19985;-41
2022/12/01 03:45:04;;;;;;;;;;;;;;;19.23;48.18;102179.63;5128197;28;19924;-44
2022/12/01 03:47:31;;;;;;;;;;;;;;;19.25;48.06;102177.44;5130379;28;19963;-41
2022/12/01 03:49:57;;;;;;;;;;;;;;;19.25;48.07;102182.13;5132412;28;20013;-41
2022/12/01 03:52:42;;;;;;;;;;;;;;;19.24;48.24;102186.00;5130008;28;19927;-43
2022/12/01 03:55:12;;;;;;;;;;;;;;;19.24;48.00;102186.81;5127503;28;19966;-42
2022/12/01 03:57:41;;;;;;;;;;;;;;;19.24;47.98;102195.13;5129894;28;20420;-41
2022/12/01 04:00:07;;;;;;;;;;;;;;;19.23;48.04;102190.69;5130307;28;20329;-42
2022/12/01 04:02:32;;;;;;;;;;;;;;;19.23;48.10;102187.09;5129954;27;20019;-42
2022/12/01 04:04:58;;;;;;;;;;;;;;;19.24;47.99;102189.59;5130027;28;19923;-41
2022/12/01 04:07:23;;;;;;;;;;;;;;;19.25;48.31;102201.47;5130736;28;19923;-41
2022/12/01 04:09:49;;;;;;;;;;;;;;;19.24;48.05;102192.34;5128543;28;19931;-42
2022/12/01 04:12:32;;;;;;;;;;;;;;;19.23;48.22;102192.63;5128595;28;20386;-40
2022/12/01 04:14:59;;;;;;;;;;;;;;;19.24;48.05;102197.03;5129463;28;19996;-43
2022/12/01 04:17:25;;;;;;;;;;;;;;;19.24;48.24;102189.59;5129910;27;19973;-41
2022/12/01 04:19:51;;;;;;;;;;;;;;;19.23;48.03;102190.69;5130715;27;20009;-44
2022/12/01 04:22:17;;;;;;;;;;;;;;;19.24;48.09;102188.75;5130830;28;19935;-41
2022/12/01 04:24:42;;;;;;;;;;;;;;;19.23;48.04;102196.22;5127864;28;19959;-44
2022/12/01 04:27:08;;;;;;;;;;;;;;;19.25;48.02;102190.44;5130453;28;19923;-41
2022/12/01 04:29:33;;;;;;;;;;;;;;;19.23;48.27;102193.44;5129119;28;19923;-43
2022/12/01 04:31:59;;;;;;;;;;;;;;;19.24;48.06;102194.28;5130754;28;20372;-41
2022/12/01 04:34:24;;;;;;;;;;;;;;;19.23;48.13;102187.94;5128928;28;19932;-41
2022/12/01 04:36:50;;;;;;;;;;;;;;;19.24;48.04;102191.53;5131191;28;19927;-40
2022/12/01 04:39:16;;;;;;;;;;;;;;;19.23;47.98;102187.09;5129653;27;20299;-43
2022/12/01 04:41:41;;;;;;;;;;;;;;;19.23;48.35;102182.41;5129876;28;19976;-41
2022/12/01 04:44:08;;;;;;;;;;;;;;;19.25;48.10;102182.97;5124542;28;19924;-41
2022/12/01 04:46:33;;;;;;;;;;;;;;;19.24;48.07;102180.47;5125455;27;19965;-42
2022/12/01 04:48:59;;;;;;;;;;;;;;;19.23;48.29;102185.16;5130586;28;19923;-41
2022/12/01 04:51:25;;;;;;;;;;;;;;;19.22;47.99;102177.97;5129484;28;19931;-41
2022/12/01 04:53:50;;;;;;;;;;;;;;;19.23;48.15;102179.63;5128143;28;20323;-42
2022/12/01 04:56:16;;;;;;;;;;;;;;;19.23;48.04;102184.31;5128116;28;19942;-43
2022/12/01 04:58:42;;;;;;;;;;;;;;;19.23;48.03;102178.81;5128620;28;20140;-43
2022/12/01 05:01:08;;;;;;;;;;;;;;;19.25;48.14;102184.91;5126531;28;19924;-43
2022/12/01 05:03:36;;;;;;;;;;;;;;;19.24;48.01;102189.59;5128773;27;19928;-42
2022/12/01 05:06:02;;;;;;;;;;;;;;;19.25;48.34;102187.66;5128987;28;19966;-43
2022/12/01 05:08:28;;;;;;;;;;;;;;;19.24;48.13;102186.81;5130218;28;20389;-42
2022/12/01 05:10:54;;;;;;;;;;;;;;;19.23;48.04;102181.56;5130840;28;19924;-42
2022/12/01 05:13:19;;;;;;;;;;;;;;;19.22;48.07;102180.75;5127061;27;19962;-42
2022/12/01 05:15:45;;;;;;;;;;;;;;;19.24;47.99;102180.47;5128341;28;19927;-42
2022/12/01 05:18:10;;;;;;;;;;;;;;;19.23;48.33;102182.41;5130419;28;19939;-41
2022/12/01 05:21:07;;;;;;;;;;;;;;;19.22;48.25;102174.38;5130066;28;19935;-41
2022/12/01 05:23:23;;;;;;;;;;;;;;;19.23;48.14;102187.09;5125396;28;20331;-44
2022/12/01 05:25:48;;;;;;;;;;;;;;;19.22;48.32;102180.75;5127389;28;19981;-41
2022/12/01 05:28:14;;;;;;;;;;;;;;;19.22;47.97;102182.66;5127089;28;19932;-41
2022/12/01 05:30:39;;;;;;;;;;;;;;;19.22;48.02;102186.25;5129015;28;19947;-42
2022/12/01 05:33:05;;;;;;;;;;;;;;;19.23;48.22;102184.31;5127621;28;19928;-43
2022/12/01 05:35:32;;;;;;;;;;;;;;;19.23;48.25;102187.09;5125326;28;20455;-41
2022/12/01 05:37:57;;;;;;;;;;;;;;;19.23;48.01;102190.69;5129320;28;20027;-45
2022/12/01 05:40:23;;;;;;;;;;;;;;;19.22;48.27;102191.78;5129865;28;19976;-41
2022/12/01 05:42:48;;;;;;;;;;;;;;;19.23;48.13;102198.13;5122059;28;20020;-41
2022/12/01 05:45:14;;;;;;;;;;;;;;;19.23;48.07;102198.97;5123919;28;19946;-42
2022/12/01 05:47:39;;;;;;;;;;;;;;;19.23;48.07;102196.22;5126623;28;19930;-42
2022/12/01 05:50:05;;;;;;;;;;;;;;;19.22;48.18;102199.22;5120571;28;20372;-41
2022/12/01 05:52:33;;;;;;;;;;;;;;;19.24;48.24;102202.56;5129597;27;19931;-43
2022/12/01 05:54:58;;;;;;;;;;;;;;;19.22;48.32;102197.31;5124083;28;20403;-41
2022/12/01 05:57:24;;;;;;;;;;;;;;;19.23;48.36;102195.38;5129813;27;19923;-42
2022/12/01 05:59:50;;;;;;;;;;;;;;;19.23;47.97;102192.63;5129668;28;19931;-43
2022/12/01 06:02:16;;;;;;;;;;;;;;;19.22;48.16;102191.78;5127325;28;20393;-41
2022/12/01 06:04:41;;;;;;;;;;;;;;;19.22;48.02;102204.75;5122692;28;19931;-41
2022/12/01 06:07:07;;;;;;;;;;;;;;;19.23;47.98;102212.78;5127196;28;19963;-42
2022/12/01 06:09:32;;;;;;;;;;;;;;;19.22;48.15;102208.34;5127613;28;19942;-41
2022/12/01 06:11:58;;;;;;;;;;;;;;;19.22;47.97;102211.13;5128222;28;19924;-43
2022/12/01 06:14:24;;;;;;;;;;;;;;;19.22;48.39;102216.63;5124654;28;19923;-43
2022/12/01 06:16:49;;;;;;;;;;;;;;;19.23;47.96;102217.47;5117544;28;19935;-41
2022/12/01 06:19:15;;;;;;;;;;;;;;;19.22;48.40;102213.88;5116239;28;19931;-40
2022/12/01 06:21:40;;;;;;;;;;;;;;;19.23;48.05;102220.22;5120698;28;19957;-41
2022/12/01 06:24:06;;;;;;;;;;;;;;;19.23;48.12;102211.94;5121113;28;19939;-42
2022/12/01 06:26:31;;;;;;;;;;;;;;;19.23;48.31;102223.00;5124503;27;19932;-41
2022/12/01 06:28:57;;;;;;;;;;;;;;;19.23;48.00;102218.31;5119113;28;19924;-41
2022/12/01 06:31:23;;;;;;;;;;;;;;;19.23;48.31;102221.06;5119009;28;20295;-42
2022/12/01 06:33:48;;;;;;;;;;;;;;;19.25;47.96;102218.03;5123741;28;19931;-41
2022/12/01 06:36:14;;;;;;;;;;;;;;;19.26;48.05;102222.50;5124808;28;19931;-42
2022/12/01 06:38:39;;;;;;;;;;;;;;;19.26;48.17;102217.81;5125252;28;20024;-41
2022/12/01 06:41:05;;;;;;;;;;;;;;;19.25;48.05;102220.81;5128005;28;19932;-41
2022/12/01 06:43:30;;;;;;;;;;;;;;;19.25;47.83;102220.81;5121168;28;20142;-41
2022/12/01 06:45:56;;;;;;;;;;;;;;;19.26;47.16;102222.50;5125928;28;20290;-41
2022/12/01 06:48:27;;;;;;;;;;;;;;;19.26;48.15;102225.28;5126605;28;19959;-42
2022/12/01 06:50:55;;;;;;;;;;;;;;;19.25;47.34;102229.09;5119891;28;19942;-45
2022/12/01 06:53:21;;;;;;;;;;;;;;;17.95;44.71;102233.38;5121898;28;20327;-41
2022/12/01 06:55:46;;;;;;;;;;;;;;;18.50;44.84;102219.94;5120027;28;19934;-42
2022/12/01 06:58:12;;;;;;;;;;;;;;;18.86;46.36;102226.19;5115620;28;19980;-41
2022/12/01 07:00:38;;;;;;;;;;;;;;;19.04;45.91;102226.00;5109739;27;19928;-41
2022/12/01 07:03:03;;;;;;;;;;;;;;;19.13;45.53;102228.31;5107278;27;19928;-43
2022/12/01 07:05:29;;;;;;;;;;;;;;;19.16;46.43;102236.94;5112951;27;19953;-40
2022/12/01 07:07:55;;;;;;;;;;;;;;;19.20;46.20;102238.13;5106887;27;19923;-43
2022/12/01 07:10:25;;;;;;;;;;;;;;;19.21;46.62;102234.31;5116518;27;19942;-41
2022/12/01 07:12:50;;;;;;;;;;;;;;;19.23;46.75;102234.03;5122104;27;19923;-41
2022/12/01 07:15:16;;;;;;;;;;;;;;;19.23;46.54;102237.63;5123298;28;19932;-43
2022/12/01 07:17:41;;;;;;;;;;;;;;;19.25;46.58;102240.13;5126745;27;20360;-40
2022/12/01 07:20:09;;;;;;;;;;;;;;;19.26;46.26;102233.56;5124431;27;19923;-40
2022/12/01 07:22:35;;;;;;;;;;;;;;;19.27;45.47;102240.75;5120996;27;20021;-40
2022/12/01 07:25:00;;;;;;;;;;;;;;;19.28;46.24;102245.16;5124111;27;20436;-43
2022/12/01 07:27:30;;;;;;;;;;;;;;;19.26;47.08;102242.66;5125482;27;19927;-41
2022/12/01 07:29:55;;;;;;;;;;;;;;;19.27;47.05;102243.50;5125164;28;19986;-47
2022/12/01 07:32:21;;;;;;;;;;;;;;;19.28;46.67;102246.00;5124930;28;19923;-41
2022/12/01 07:34:46;;;;;;;;;;;;;;;19.29;46.82;102250.44;5125221;27;20283;-42
2022/12/01 07:37:12;;;;;;;;;;;;;;;19.29;46.73;102255.97;5122264;27;19939;-45
2022/12/01 07:39:37;;;;;;;;;;;;;;;19.29;46.88;102246.84;5124079;28;19987;-42
2022/12/01 07:42:03;;;;;;;;;;;;;;;19.29;46.82;102252.38;5122985;27;19947;-41
2022/12/01 07:44:29;;;;;;;;;;;;;;;19.29;46.87;102246.84;5124261;28;19985;-43
2022/12/01 07:46:54;;;;;;;;;;;;;;;19.30;46.89;102256.81;5126815;28;19923;-42
2022/12/01 07:49:20;;;;;;;;;;;;;;;19.30;46.92;102254.06;5121991;27;19924;-41
2022/12/01 07:51:46;;;;;;;;;;;;;;;19.32;46.89;102251.03;5115098;27;20358;-43
2022/12/01 07:54:13;;;;;;;;;;;;;;;19.33;46.85;102255.47;5114818;28;20354;-41
2022/12/01 07:56:38;;;;;;;;;;;;;;;19.33;46.95;102253.53;5113711;27;20010;-41
2022/12/01 07:59:04;;;;;;;;;;;;;;;19.33;46.89;102255.47;5114349;27;19931;-41
2022/12/01 08:01:30;;;;;;;;;;;;;;;19.33;47.08;102248.03;5107065;27;20042;-41
2022/12/01 08:03:56;;;;;;;;;;;;;;;19.33;46.94;102253.53;5106154;27;19927;-41
2022/12/01 08:06:21;;;;;;;;;;;;;;;19.34;46.86;102257.97;5108243;28;19927;-42
2022/12/01 08:08:47;;;;;;;;;;;;;;;19.34;46.89;102257.13;5110635;28;19931;-41
2022/12/01 08:11:28;;;;;;;;;;;;;;;19.34;46.97;102262.66;5121980;27;19932;-40
2022/12/01 08:13:54;;;;;;;;;;;;;;;19.33;47.04;102270.13;5115857;28;19966;-42
2022/12/01 08:16:20;;;;;;;;;;;;;;;19.33;47.09;102259.06;5117850;27;20556;-44
2022/12/01 08:18:45;;;;;;;;;;;;;;;19.34;47.02;102268.19;5123662;27;20527;-42
2022/12/01 08:21:12;;;;;;;;;;;;;;;19.33;47.02;102267.34;5119265;27;19935;-44
2022/12/01 08:23:38;;;;;;;;;;;;;;;19.33;47.33;102266.53;5124344;28;20459;-43
2022/12/01 08:26:05;;;;;;;;;;;;;;;19.32;47.10;102267.63;5120587;27;19924;-42
2022/12/01 08:28:31;;;;;;;;;;;;;;;19.33;47.12;102270.13;5123109;27;19979;-43
2022/12/01 08:30:56;;;;;;;;;;;;;;;19.33;47.21;102272.88;5114884;27;19931;-43
2022/12/01 08:33:22;;;;;;;;;;;;;;;19.34;47.13;102273.72;5119874;27;19939;-44
2022/12/01 08:35:48;;;;;;;;;;;;;;;19.33;47.35;102270.13;5105664;27;19931;-42
2022/12/01 08:38:14;;;;;;;;;;;;;;;19.34;47.29;102274.53;5121189;27;19931;-52
2022/12/01 08:40:40;;;;;;;;;;;;;;;19.40;47.08;102275.50;5121797;27;20036;-42
2022/12/01 08:43:05;;;;;;;;;;;;;;;19.38;47.13;102275.72;5119443;27;20600;-42
2022/12/01 08:45:31;;;;;;;;;;;;;;;19.37;46.99;102271.28;5117355;27;19931;-41
2022/12/01 08:47:57;;;;;;;;;;;;;;;19.36;47.02;102277.09;5121150;27;19931;-43
2022/12/01 08:50:24;;;;;;;;;;;;;;;19.35;47.53;102273.47;5120579;28;20381;-41
2022/12/01 08:52:49;;;;;;;;;;;;;;;19.35;47.39;102279.00;5117799;28;20008;-42
2022/12/01 08:55:15;;;;;;;;;;;;;;;19.34;47.19;102282.84;5116698;28;19928;-42
2022/12/01 08:57:40;;;;;;;;;;;;;;;19.36;46.96;102275.16;5120165;28;19930;-41
2022/12/01 09:00:06;;;;;;;;;;;;;;;19.37;47.17;102285.09;5122503;28;19943;-41
2022/12/01 09:02:32;;;;;;;;;;;;;;;19.38;47.25;102272.97;5114369;27;21029;-41
2022/12/01 09:04:57;;;;;;;;;;;;;;;19.36;47.25;102272.38;5108834;27;20397;-41
2022/12/01 09:07:23;;;;;;;;;;;;;;;19.37;47.53;102284.28;5111388;27;20283;-42
2022/12/01 09:09:52;;;;;;;;;;;;;;;19.38;47.36;102289.53;5105382;27;20014;-41
2022/12/01 09:12:17;;;;;;;;;;;;;;;19.39;46.91;102288.47;5104143;27;20317;-43
2022/12/01 09:14:48;;;;;;;;;;;;;;;19.39;46.36;102287.63;5107532;27;19932;-43
2022/12/01 09:17:14;;;;;;;;;;;;;;;18.95;43.85;102285.44;5115317;27;21129;-51
2022/12/01 09:19:39;;;;;;;;;;;;;;;19.19;45.76;102288.94;5115387;27;20713;-44
2022/12/01 09:22:05;;;;;;;;;;;;;;;19.30;45.54;102288.03;5116609;27;19923;-40
2022/12/01 09:24:31;;;;;;;;;;;;;;;19.35;46.60;102289.22;5116454;27;19930;-43
2022/12/01 09:26:57;;;;;;;;;;;;;;;19.34;45.80;102293.88;5114042;27;20885;-42
2022/12/01 09:29:22;;;;;;;;;;;;;;;19.38;46.87;102295.06;5116190;27;20036;-43
2022/12/01 09:31:48;;;;;;;;;;;;;;;19.41;47.32;102300.09;5114352;27;19923;-46
2022/12/01 09:34:15;;;;;;;;;;;;;;;19.43;46.88;102299.84;5105460;27;19931;-43
2022/12/01 09:36:40;;;;;;;;;;;;;;;19.42;46.95;102296.25;5100893;27;19967;-41
2022/12/01 09:39:06;;;;;;;;;;;;;;;19.41;47.28;102294.56;5103376;27;19942;-40
2022/12/01 09:41:41;;;;;;;;;;;;;;;19.48;46.84;102303.56;5106225;27;20320;-41
2022/12/01 09:46:46;;;;;;;;;;;;;;;19.52;47.05;102296.44;5149141;27;20021;-42
2022/12/01 09:49:15;;;;;;;;;;;;;;;19.51;47.35;102291.13;5133413;27;19932;-43
2022/12/01 09:51:41;;;;;;;;;;;;;;;19.49;47.04;102288.63;5135745;27;20649;-44
2022/12/01 09:54:07;;;;;;;;;;;;;;;19.47;47.25;102296.34;5137068;27;19923;-41
2022/12/01 09:56:35;;;;;;;;;;;;;;;19.47;47.53;102296.34;5113842;27;19923;-41
2022/12/01 09:59:01;;;;;;;;;;;;;;;19.47;47.49;102289.97;5134877;27;19963;-44
2022/12/01 10:01:30;;;;;;;;;;;;;;;19.48;47.62;102291.66;5119987;27;19967;-41
2022/12/01 10:03:56;;;;;;;;;;;;;;;19.47;47.26;102279.78;5139683;27;20360;-42
2022/12/01 10:06:24;;;;;;;;;;;;;;;19.47;47.28;102274.25;5113209;27;19959;-42
2022/12/01 10:09:13;;;;;;;;;;;;;;;19.48;47.47;102283.38;5131124;27;19935;-40
2022/12/01 10:11:39;;;;;;;;;;;;;;;19.49;47.49;102282.28;5120437;27;20407;-41
2022/12/01 10:14:07;;;;;;;;;;;;;;;19.49;47.23;102276.75;5130960;27;20050;-42
2022/12/01 10:16:34;;;;;;;;;;;;;;;19.48;47.17;102277.84;5134011;27;19958;-43
2022/12/01 10:19:01;;;;;;;;;;;;;;;19.49;47.33;102285.88;5131226;27;19979;-40
2022/12/01 10:21:47;;;;;;;;;;;;;;;19.49;47.51;102280.34;5128937;27;20374;-41
2022/12/01 10:24:20;;;;;;;;;;;;;;;19.50;47.35;102276.50;5116229;27;20095;-41
2022/12/01 10:26:54;;;;;;;;;;;;;;;19.51;47.41;102277.31;5129515;27;20023;-42
2022/12/01 10:29:31;;;;;;;;;;;;;;;19.50;47.24;102281.19;5106465;27;19980;-43
2022/12/01 10:31:59;;;;;;;;;;;;;;;19.51;47.45;102269.88;5126651;27;20417;-42
2022/12/01 10:34:27;;;;;;;;;;;;;;;19.50;47.40;102267.38;5126726;27;19978;-43
2022/12/01 10:36:52;;;;;;;;;;;;;;;19.52;47.65;102267.97;5115008;27;20217;-41
2022/12/01 10:39:22;;;;;;;;;;;;;;;19.52;47.40;102268.81;5119957;27;20312;-41
2022/12/01 10:41:48;;;;;;;;;;;;;;;19.53;47.45;102264.13;5123685;27;19970;-42
2022/12/01 10:44:13;;;;;;;;;;;;;;;19.54;47.53;102271.31;5117110;27;19927;-43
2022/12/01 10:46:43;;;;;;;;;;;;;;;19.53;46.78;102264.13;5122563;27;19942;-43
2022/12/01 10:49:11;;;;;;;;;;;;;;;19.53;47.41;102261.34;5124894;27;20395;-41
2022/12/01 10:51:49;;;;;;;;;;;;;;;19.53;47.49;102264.13;5109601;27;20290;-40
2022/12/01 10:54:15;;;;;;;;;;;;;;;19.53;47.47;102262.19;5117247;27;20392;-41
2022/12/01 10:56:40;;;;;;;;;;;;;;;19.53;47.59;102251.13;5115443;27;20527;-42
2022/12/01 10:59:23;;;;;;;;;;;;;;;19.53;47.65;102255.81;5103995;27;19978;-42
2022/12/01 11:01:48;;;;;;;;;;;;;;;19.52;47.56;102252.22;5094633;28;19962;-43
2022/12/01 11:04:34;;;;;;;;;;;;;;;19.56;47.10;102255.34;5115502;27;19923;-41
2022/12/01 11:07:00;;;;;;;;;;;;;;;19.61;47.40;102251.84;5097040;27;20018;-41
2022/12/01 11:09:27;;;;;;;;;;;;;;;19.59;47.30;102251.22;5104315;27;19939;-41
2022/12/01 11:11:53;;;;;;;;;;;;;;;19.56;47.53;102255.34;5096486;28;19963;-42
2022/12/01 11:14:20;;;;;;;;;;;;;;;19.54;47.26;102252.81;5111284;27;20329;-43
2022/12/01 11:16:46;;;;;;;;;;;;;;;19.54;47.18;102257.50;5115448;27;19966;-43
2022/12/01 11:19:20;;;;;;;;;;;;;;;19.52;47.49;102255.00;5118246;28;19934;-43
2022/12/01 11:21:53;;;;;;;;;;;;;;;19.53;47.59;102259.41;5100161;28;19932;-40
2022/12/01 11:24:40;;;;;;;;;;;;;;;19.53;47.63;102253.91;5095721;28;19976;-40
2022/12/01 11:27:11;;;;;;;;;;;;;;;19.53;47.60;102253.06;5099276;28;19970;-42
2022/12/01 11:29:37;;;;;;;;;;;;;;;19.52;47.48;102251.41;5098673;28;20381;-40
2022/12/01 11:32:11;;;;;;;;;;;;;;;19.52;47.74;102257.75;5115452;27;20466;-42
2022/12/01 11:34:37;;;;;;;;;;;;;;;19.61;46.84;102257.38;5109507;28;19923;-42
2022/12/01 11:37:04;;;;;;;;;;;;;;;19.61;47.06;102251.84;5112241;28;19982;-46
2022/12/01 11:39:32;;;;;;;;;;;;;;;19.59;47.49;102253.97;5110069;27;20033;-43
2022/12/01 11:42:01;;;;;;;;;;;;;;;19.55;47.52;102243.41;5102087;27;20390;-46
2022/12/01 11:44:27;;;;;;;;;;;;;;;19.57;47.65;102247.88;5100562;27;20015;-44
2022/12/01 11:47:14;;;;;;;;;;;;;;;19.55;47.46;102250.88;5093309;28;20287;-44
2022/12/01 11:49:51;;;;;;;;;;;;;;;19.51;45.84;102241.41;5084784;28;19934;-47
2022/12/01 11:52:35;;;;;;;;;;;;;;;19.55;46.92;102251.69;5085357;28;19939;-45
2022/12/01 11:57:51;;;;;;;;;;;;;;;19.58;47.35;102246.78;5129935;27;19933;-42
2022/12/01 12:00:18;;;;;;;;;;;;;;;19.60;47.48;102244.59;5127904;27;20072;-45
2022/12/01 12:02:48;;;;;;;;;;;;;;;19.57;47.21;102239.59;5109489;28;19957;-42
2022/12/01 12:05:22;;;;;;;;;;;;;;;19.59;47.48;102246.50;5112325;28;19932;-42
2022/12/01 12:07:54;;;;;;;;;;;;;;;19.23;42.97;102243.16;5108456;28;19986;-53
2022/12/01 12:10:29;;;;;;;;;;;;;;;19.48;46.58;102237.25;5112031;28;20019;-46
2022/12/01 12:13:15;;;;;;;;;;;;;;;19.55;46.96;102245.34;5085407;28;20101;-41
2022/12/01 12:15:49;;;;;;;;;;;;;;;19.59;45.98;102245.69;5091707;28;19975;-41
2022/12/01 12:18:39;;;;;;;;;;;;;;;19.60;47.06;102241.81;5106672;28;20560;-42
2022/12/01 12:21:09;;;;;;;;;;;;;;;19.60;46.80;102237.13;5096933;28;19970;-41
2022/12/01 12:23:54;;;;;;;;;;;;;;;19.61;46.90;102238.03;5108578;28;19973;-43
2022/12/01 12:26:24;;;;;;;;;;;;;;;19.62;46.94;102235.00;5087045;28;19959;-42
2022/12/01 12:29:10;;;;;;;;;;;;;;;19.62;46.78;102228.63;5083489;28;20370;-42
2022/12/01 12:31:59;;;;;;;;;;;;;;;19.63;46.72;102225.59;5082233;28;20014;-40
2022/12/01 12:34:44;;;;;;;;;;;;;;;19.63;46.72;102231.13;5094041;28;20011;-41
2022/12/01 12:37:19;;;;;;;;;;;;;;;19.63;46.82;102217.31;5083114;28;19997;-42
2022/12/01 12:39:49;;;;;;;;;;;;;;;19.64;47.21;102229.22;5083233;28;20018;-41
2022/12/01 12:42:34;;;;;;;;;;;;;;;19.64;47.16;102218.16;5094039;28;19930;-41
2022/12/01 12:45:03;;;;;;;;;;;;;;;19.64;46.87;102219.00;5110596;28;19968;-45
2022/12/01 12:50:11;;;;;;;;;;;;;;;19.63;46.99;102211.78;5152959;27;19929;-43
2022/12/01 12:52:39;;;;;;;;;;;;;;;19.64;47.21;102204.34;5147616;27;20026;-41
2022/12/01 12:55:24;;;;;;;;;;;;;;;19.64;46.88;102207.09;5146961;27;19969;-42